Time;durP1;ratioP1;P1;durP2;ratioP2;P2;SDS_P1;SDS_P2;PMS_P1;PMS_P2;Temp;Humidity;BMP_temperature;BMP_pressure;BME280_temperature;BME280_humidity;BME280_pressure;Samples;Min_cycle;Max_cycle;Signal;HPM_P1;HPM_P2
2022/05/29 00:01:58;;;;;;;7.28;1.38;;;10.30;99.90;;;;;;4975197;28;20019;-40
2022/05/29 00:04:24;;;;;;;6.43;2.10;;;10.30;99.90;;;;;;4975325;28;20037;-38
2022/05/29 00:06:55;;;;;;;5.65;1.63;;;10.20;99.90;;;;;;4975260;28;20058;-38
2022/05/29 00:09:31;;;;;;;4.32;1.80;;;10.20;99.90;;;;;;4966791;28;20097;-28
2022/05/29 00:12:00;;;;;;;3.78;1.80;;;10.20;99.90;;;;;;4961437;28;20035;-32
2022/05/29 00:14:26;;;;;;;4.43;1.15;;;10.20;99.90;;;;;;4975422;28;20065;-29
2022/05/29 00:16:52;;;;;;;8.45;1.20;;;10.20;99.90;;;;;;4975007;28;20030;-37
2022/05/29 00:19:18;;;;;;;6.15;1.35;;;10.20;99.90;;;;;;4974919;28;20110;-28
2022/05/29 00:21:43;;;;;;;9.07;2.05;;;10.30;99.90;;;;;;4974780;28;20545;-29
2022/05/29 00:24:09;;;;;;;5.47;2.25;;;10.20;99.90;;;;;;4973536;28;20033;-27
2022/05/29 00:26:36;;;;;;;5.00;1.50;;;10.20;99.90;;;;;;4974041;28;20069;-28
2022/05/29 00:29:02;;;;;;;5.32;1.60;;;10.20;99.90;;;;;;4974752;28;20034;-32
2022/05/29 00:31:28;;;;;;;6.50;1.52;;;10.20;99.90;;;;;;4973526;28;20050;-33
2022/05/29 00:33:54;;;;;;;14.98;2.72;;;10.10;99.90;;;;;;4972087;28;20475;-28
2022/05/29 00:36:20;;;;;;;8.23;2.03;;;10.20;99.90;;;;;;4971268;28;20080;-28
2022/05/29 00:38:47;;;;;;;5.93;2.50;;;10.20;99.90;;;;;;4974757;28;20027;-27
2022/05/29 00:41:18;;;;;;;4.32;1.27;;;10.20;99.90;;;;;;4974514;28;20387;-28
2022/05/29 00:44:08;;;;;;;5.68;2.22;;;10.20;99.90;;;;;;4973277;28;20031;-27
2022/05/29 00:46:34;;;;;;;7.70;1.85;;;10.20;99.90;;;;;;4970515;28;20058;-28
2022/05/29 00:49:08;;;;;;;5.65;1.63;;;10.10;99.90;;;;;;4972946;28;20042;-45
2022/05/29 00:51:41;;;;;;;14.32;1.90;;;10.10;99.90;;;;;;4974106;28;20033;-38
2022/05/29 00:54:08;;;;;;;8.27;1.60;;;10.00;99.90;;;;;;4970985;28;20030;-38
2022/05/29 00:56:36;;;;;;;6.75;1.77;;;10.00;99.90;;;;;;4969199;28;20047;-38
2022/05/29 00:59:02;;;;;;;12.43;2.00;;;10.00;99.90;;;;;;4973213;28;20026;-42
2022/05/29 01:01:29;;;;;;;6.88;1.50;;;9.90;99.90;;;;;;4972434;28;20024;-37
2022/05/29 01:03:55;;;;;;;2.90;1.60;;;9.90;99.90;;;;;;4970731;28;20019;-38
2022/05/29 01:06:21;;;;;;;8.45;2.00;;;9.90;99.90;;;;;;4970368;28;20042;-38
2022/05/29 01:08:47;;;;;;;8.27;1.85;;;9.90;99.90;;;;;;4970509;28;20046;-36
2022/05/29 01:11:39;;;;;;;1.83;1.25;;;9.80;99.90;;;;;;4969820;28;20019;-29
2022/05/29 01:14:28;;;;;;;8.13;1.10;;;9.90;99.90;;;;;;4966321;28;20030;-38
2022/05/29 01:17:07;;;;;;;14.02;2.35;;;9.90;99.90;;;;;;4973468;28;20038;-37
2022/05/29 01:19:57;;;;;;;6.90;1.33;;;10.00;99.90;;;;;;4973673;28;20023;-47
2022/05/29 01:22:40;;;;;;;11.00;2.20;;;10.00;99.90;;;;;;4973557;28;20482;-38
2022/05/29 01:25:27;;;;;;;7.78;1.58;;;9.90;99.90;;;;;;4969910;28;20035;-36
2022/05/29 01:28:27;;;;;;;5.70;1.27;;;9.90;99.90;;;;;;4972918;28;20034;-38
2022/05/29 01:31:12;;;;;;;6.15;1.75;;;10.00;99.90;;;;;;4973582;28;20027;-37
2022/05/29 01:33:53;;;;;;;5.07;1.13;;;10.00;99.90;;;;;;4970637;28;20110;-37
2022/05/29 01:36:50;;;;;;;8.77;1.55;;;10.00;99.90;;;;;;4971909;28;20496;-36
2022/05/29 01:39:32;;;;;;;2.42;1.42;;;10.00;99.90;;;;;;4967510;28;20510;-37
2022/05/29 01:42:05;;;;;;;12.85;2.22;;;10.00;99.90;;;;;;4971944;28;20092;-37
2022/05/29 01:44:40;;;;;;;6.05;1.40;;;10.00;99.90;;;;;;4968903;28;20483;-37
2022/05/29 01:47:19;;;;;;;7.40;2.25;;;10.00;99.90;;;;;;4971877;28;20097;-36
2022/05/29 01:49:59;;;;;;;6.22;2.30;;;10.00;99.90;;;;;;4973447;28;20498;-37
2022/05/29 01:52:41;;;;;;;4.38;1.60;;;10.00;99.90;;;;;;4972947;28;20190;-37
2022/05/29 01:55:18;;;;;;;6.00;1.60;;;10.00;99.90;;;;;;4970617;28;20035;-36
2022/05/29 01:57:48;;;;;;;6.35;1.73;;;10.10;99.90;;;;;;4973004;28;20096;-37
2022/05/29 02:00:17;;;;;;;3.35;2.08;;;10.20;99.90;;;;;;4971590;28;20483;-37
2022/05/29 02:03:02;;;;;;;11.27;1.85;;;10.20;99.90;;;;;;4973216;28;20031;-37
2022/05/29 02:05:35;;;;;;;11.95;2.65;;;10.20;99.90;;;;;;4971881;28;20070;-37
2022/05/29 02:08:21;;;;;;;7.38;1.77;;;10.20;99.90;;;;;;4971993;28;20026;-37
2022/05/29 02:10:51;;;;;;;7.28;1.83;;;10.30;99.90;;;;;;4970081;28;20015;-38
2022/05/29 02:13:23;;;;;;;3.83;1.92;;;10.30;99.90;;;;;;4971824;28;20050;-37
2022/05/29 02:15:55;;;;;;;8.75;2.33;;;10.40;99.90;;;;;;4961722;28;20023;-37
2022/05/29 02:18:38;;;;;;;5.68;2.05;;;10.40;99.90;;;;;;4972815;28;20061;-37
2022/05/29 02:21:12;;;;;;;11.13;1.65;;;10.40;99.90;;;;;;4972971;28;20402;-36
2022/05/29 02:23:46;;;;;;;5.20;1.40;;;10.40;99.90;;;;;;4973529;28;20089;-37
2022/05/29 02:26:16;;;;;;;9.52;1.50;;;10.30;99.90;;;;;;4976636;28;20031;-37
2022/05/29 02:28:46;;;;;;;10.23;1.80;;;10.40;99.90;;;;;;4974008;28;20550;-35
2022/05/29 02:31:31;;;;;;;9.65;1.83;;;10.40;99.90;;;;;;4974702;28;20491;-36
2022/05/29 02:34:18;;;;;;;4.30;2.47;;;10.30;99.90;;;;;;4971734;28;20055;-31
2022/05/29 02:36:53;;;;;;;10.50;1.52;;;10.30;99.90;;;;;;4974189;28;20035;-29
2022/05/29 02:39:53;;;;;;;5.95;1.55;;;10.40;99.90;;;;;;4975138;28;20361;-26
2022/05/29 02:42:21;;;;;;;8.30;1.60;;;10.40;99.90;;;;;;4975684;28;20519;-27
2022/05/29 02:45:03;;;;;;;7.18;1.52;;;10.40;99.90;;;;;;4975447;28;20031;-27
2022/05/29 02:47:53;;;;;;;16.33;4.03;;;10.50;99.90;;;;;;4971885;28;20034;-29
2022/05/29 02:50:43;;;;;;;10.93;1.65;;;10.50;99.90;;;;;;4972173;28;20030;-30
2022/05/29 02:53:12;;;;;;;4.97;1.77;;;10.40;99.90;;;;;;4974682;28;20110;-32
2022/05/29 02:55:40;;;;;;;5.82;1.45;;;10.40;99.90;;;;;;4976002;28;20077;-32
2022/05/29 02:58:10;;;;;;;1.95;1.52;;;10.40;99.90;;;;;;4975300;28;20484;-37
2022/05/29 03:01:00;;;;;;;3.97;1.60;;;10.50;99.90;;;;;;4975804;28;20054;-37
2022/05/29 03:03:56;;;;;;;12.25;1.88;;;10.50;99.90;;;;;;4967316;28;20039;-27
2022/05/29 03:06:46;;;;;;;7.65;2.40;;;10.50;99.90;;;;;;4974559;28;20110;-28
2022/05/29 03:09:29;;;;;;;9.23;1.63;;;10.50;99.90;;;;;;4972346;28;20074;-30
2022/05/29 03:11:55;;;;;;;8.35;2.00;;;10.50;99.90;;;;;;4975514;28;20476;-28
2022/05/29 03:14:39;;;;;;;12.32;1.90;;;10.50;99.90;;;;;;4973841;28;20058;-30
2022/05/29 03:17:11;;;;;;;12.30;1.92;;;10.50;99.90;;;;;;4974573;28;20057;-28
2022/05/29 03:20:03;;;;;;;4.75;2.15;;;10.40;99.90;;;;;;4974785;28;20503;-30
2022/05/29 03:22:28;;;;;;;8.80;2.35;;;10.30;99.90;;;;;;4975305;28;20066;-30
2022/05/29 03:25:15;;;;;;;5.28;1.75;;;10.20;99.90;;;;;;4972119;28;20027;-31
2022/05/29 03:27:45;;;;;;;4.47;1.63;;;10.20;99.90;;;;;;4974133;28;20039;-29
2022/05/29 03:30:19;;;;;;;15.25;2.53;;;10.20;99.90;;;;;;4974347;28;20519;-28
2022/05/29 03:32:46;;;;;;;13.75;2.97;;;10.20;99.90;;;;;;4975363;28;20048;-30
2022/05/29 03:35:52;;;;;;;3.40;1.63;;;10.10;99.90;;;;;;4970815;28;20023;-30
2022/05/29 03:38:19;;;;;;;13.03;1.73;;;10.10;99.90;;;;;;4961587;28;20143;-29
2022/05/29 03:40:47;;;;;;;2.30;1.45;;;10.00;99.90;;;;;;4974722;28;20394;-27
2022/05/29 03:43:13;;;;;;;4.18;1.30;;;10.00;99.90;;;;;;4972698;28;20506;-28
2022/05/29 03:45:38;;;;;;;3.28;1.40;;;10.00;99.90;;;;;;4975071;28;20489;-47
2022/05/29 03:48:05;;;;;;;13.45;1.35;;;10.00;99.90;;;;;;4975222;28;20134;-38
2022/05/29 03:50:33;;;;;;;5.70;1.40;;;10.00;99.90;;;;;;4972395;28;20033;-39
2022/05/29 03:53:00;;;;;;;1.80;1.13;;;10.00;99.90;;;;;;4974697;28;20057;-27
2022/05/29 03:55:26;;;;;;;10.55;1.63;;;10.00;99.90;;;;;;4974281;28;20026;-35
2022/05/29 03:57:52;;;;;;;9.05;1.60;;;10.00;99.90;;;;;;4975073;28;20026;-29
2022/05/29 04:00:19;;;;;;;2.97;1.50;;;10.00;99.90;;;;;;4972787;28;20045;-47
2022/05/29 04:02:46;;;;;;;7.80;1.70;;;10.00;99.90;;;;;;4974772;28;20062;-37
2022/05/29 04:05:16;;;;;;;5.57;1.95;;;10.10;99.90;;;;;;4972908;28;20515;-37
2022/05/29 04:13:11;;;;;;;6.10;1.88;;;10.20;99.90;;;;;;4972736;28;20046;-36
2022/05/29 04:15:44;;;;;;;6.57;2.20;;;10.20;99.90;;;;;;4974634;28;20106;-36
2022/05/29 04:18:12;;;;;;;8.13;1.65;;;10.30;99.90;;;;;;4974567;28;20130;-38
2022/05/29 04:20:37;;;;;;;11.23;2.67;;;10.40;99.90;;;;;;4971255;28;20073;-38
2022/05/29 04:23:03;;;;;;;4.38;1.55;;;10.40;99.90;;;;;;4973636;28;20076;-36
2022/05/29 04:25:29;;;;;;;8.68;1.60;;;10.30;99.90;;;;;;4988890;28;20019;-38
2022/05/29 04:27:54;;;;;;;6.35;1.52;;;10.30;99.90;;;;;;4974387;28;20545;-38
2022/05/29 04:30:20;;;;;;;8.80;2.20;;;10.40;99.90;;;;;;4971631;28;20057;-38
2022/05/29 04:33:00;;;;;;;3.47;1.15;;;10.40;99.90;;;;;;4972404;28;20493;-37
2022/05/29 04:35:31;;;;;;;3.70;1.55;;;10.50;99.90;;;;;;4973273;28;20475;-30
2022/05/29 04:37:58;;;;;;;5.07;1.45;;;10.50;99.90;;;;;;4970154;28;20030;-30
2022/05/29 04:40:24;;;;;;;3.00;1.45;;;10.50;99.90;;;;;;4973317;28;20037;-29
2022/05/29 04:42:50;;;;;;;5.22;1.63;;;10.60;99.90;;;;;;4973209;28;20399;-30
2022/05/29 04:45:16;;;;;;;3.70;1.23;;;10.60;99.90;;;;;;4972062;28;20047;-29
2022/05/29 04:47:41;;;;;;;11.52;2.05;;;10.60;99.90;;;;;;4970852;28;20046;-33
2022/05/29 04:50:08;;;;;;;3.00;1.52;;;10.70;99.90;;;;;;4973951;28;20499;-29
2022/05/29 04:52:34;;;;;;;4.97;1.65;;;10.70;99.90;;;;;;4973875;28;20038;-35
2022/05/29 04:55:00;;;;;;;14.20;2.75;;;10.60;99.90;;;;;;4974020;28;20479;-27
2022/05/29 04:57:26;;;;;;;6.97;1.80;;;10.60;99.90;;;;;;4973721;28;20027;-31
2022/05/29 04:59:52;;;;;;;7.22;1.73;;;10.60;99.90;;;;;;4971720;28;20027;-30
2022/05/29 05:02:18;;;;;;;6.07;1.58;;;10.60;99.90;;;;;;4962562;28;20039;-30
2022/05/29 05:04:43;;;;;;;10.27;2.38;;;10.60;99.90;;;;;;4968407;28;20134;-29
2022/05/29 05:07:09;;;;;;;2.03;1.38;;;10.50;99.90;;;;;;4971732;28;20062;-48
2022/05/29 05:09:34;;;;;;;4.65;1.85;;;10.50;99.90;;;;;;4958900;28;20031;-49
2022/05/29 05:12:00;;;;;;;7.22;1.98;;;10.50;99.90;;;;;;4973679;28;20053;-31
2022/05/29 05:14:27;;;;;;;3.70;1.90;;;10.50;99.90;;;;;;4973464;28;20023;-28
2022/05/29 05:16:53;;;;;;;1.67;1.33;;;10.40;99.90;;;;;;4972664;28;20043;-29
2022/05/29 05:19:19;;;;;;;7.32;1.60;;;10.50;99.90;;;;;;4973027;28;20030;-27
2022/05/29 05:21:45;;;;;;;13.40;1.70;;;10.40;99.90;;;;;;4972641;28;20126;-31
2022/05/29 05:24:11;;;;;;;13.20;2.05;;;10.50;99.90;;;;;;4973634;28;20118;-29
2022/05/29 05:26:37;;;;;;;2.78;1.42;;;10.50;99.90;;;;;;4973715;28;20031;-36
2022/05/29 05:29:04;;;;;;;9.80;2.33;;;10.60;99.90;;;;;;4973005;28;20110;-36
2022/05/29 05:31:30;;;;;;;6.35;1.60;;;10.50;99.90;;;;;;4970237;28;20122;-40
2022/05/29 05:33:55;;;;;;;7.95;1.48;;;10.50;99.90;;;;;;4971634;28;20035;-39
2022/05/29 05:36:21;;;;;;;6.18;1.45;;;10.40;99.90;;;;;;4972237;28;20371;-35
2022/05/29 05:38:47;;;;;;;15.50;1.90;;;10.50;99.90;;;;;;4972757;28;20062;-30
2022/05/29 05:41:14;;;;;;;6.20;2.67;;;10.50;99.90;;;;;;4973062;28;20062;-30
2022/05/29 05:43:40;;;;;;;4.43;1.75;;;10.50;99.90;;;;;;4973979;28;20034;-27
2022/05/29 05:46:07;;;;;;;6.75;2.15;;;10.60;99.90;;;;;;4973436;28;20039;-44
2022/05/29 05:48:33;;;;;;;3.20;1.40;;;10.70;99.90;;;;;;4975187;28;20483;-41
2022/05/29 05:50:59;;;;;;;6.10;1.60;;;10.80;99.90;;;;;;4970899;28;21709;-37
2022/05/29 05:53:25;;;;;;;6.72;1.88;;;11.00;99.90;;;;;;4971811;28;20023;-36
2022/05/29 05:55:51;;;;;;;8.35;1.92;;;11.00;99.90;;;;;;4973889;28;20042;-37
2022/05/29 05:58:16;;;;;;;8.05;1.83;;;11.10;99.90;;;;;;4989794;28;20092;-37
2022/05/29 06:00:47;;;;;;;6.45;1.45;;;11.30;99.90;;;;;;4975505;28;20069;-36
2022/05/29 06:03:13;;;;;;;7.57;1.58;;;11.50;99.90;;;;;;4974785;28;20082;-37
2022/05/29 06:05:38;;;;;;;5.88;1.40;;;11.70;99.90;;;;;;4975311;28;20023;-37
2022/05/29 06:08:05;;;;;;;10.35;1.95;;;11.80;99.90;;;;;;4976954;28;20062;-35
2022/05/29 06:10:30;;;;;;;6.55;1.48;;;12.20;99.90;;;;;;4975253;28;20403;-38
2022/05/29 06:13:01;;;;;;;7.10;2.05;;;12.60;99.90;;;;;;4968665;28;20035;-36
2022/05/29 06:15:27;;;;;;;5.45;1.63;;;12.70;99.90;;;;;;4974784;28;20501;-37
2022/05/29 06:17:53;;;;;;;5.65;1.50;;;12.90;99.90;;;;;;4974410;28;20395;-38
2022/05/29 06:20:19;;;;;;;10.05;2.15;;;13.10;99.90;;;;;;4974737;28;20018;-36
2022/05/29 06:22:44;;;;;;;10.05;1.45;;;13.20;99.90;;;;;;4976486;28;20086;-36
2022/05/29 06:25:10;;;;;;;4.50;1.20;;;13.00;99.90;;;;;;4975852;28;20037;-36
2022/05/29 06:27:40;;;;;;;8.73;1.60;;;12.70;99.90;;;;;;4989986;28;20026;-30
2022/05/29 06:30:08;;;;;;;3.95;1.88;;;12.40;99.90;;;;;;4974999;28;20041;-27
2022/05/29 06:32:35;;;;;;;7.10;1.30;;;12.30;99.90;;;;;;4976451;28;20034;-34
2022/05/29 06:35:01;;;;;;;9.10;1.75;;;12.10;99.90;;;;;;4972946;28;20039;-33
2022/05/29 06:37:27;;;;;;;6.32;1.23;;;13.20;99.90;;;;;;4975273;28;20507;-33
2022/05/29 06:39:53;;;;;;;6.47;1.02;;;14.70;99.90;;;;;;4973866;28;20031;-46
2022/05/29 06:42:19;;;;;;;1.23;0.93;;;15.60;99.90;;;;;;4975605;28;20399;-27
2022/05/29 06:44:44;;;;;;;8.48;0.95;;;15.00;99.90;;;;;;4978905;28;20054;-32
2022/05/29 06:47:10;;;;;;;6.03;1.02;;;14.10;99.90;;;;;;4970708;28;20043;-47
2022/05/29 06:49:36;;;;;;;5.85;1.33;;;13.40;99.90;;;;;;4972520;28;20030;-33
2022/05/29 06:52:07;;;;;;;4.55;0.80;;;13.20;99.90;;;;;;4975440;28;20126;-38
2022/05/29 06:54:34;;;;;;;5.68;1.70;;;13.50;99.90;;;;;;4979831;28;20022;-38
2022/05/29 06:57:00;;;;;;;2.40;0.93;;;13.70;99.90;;;;;;4975893;28;20082;-37
2022/05/29 06:59:25;;;;;;;5.13;0.75;;;14.40;99.90;;;;;;4972062;28;20022;-27
2022/05/29 07:07:22;;;;;;;3.78;0.50;;;17.70;99.90;;;;;;4973098;28;20277;-27
2022/05/29 07:09:48;;;;;;;4.53;1.52;;;18.10;99.90;;;;;;4974351;28;20042;-31
2022/05/29 07:12:27;;;;;;;3.78;0.80;;;18.60;99.90;;;;;;4973650;28;20026;-28
2022/05/29 07:14:58;;;;;;;7.72;0.82;;;18.40;99.90;;;;;;4967702;28;20117;-30
2022/05/29 07:17:26;;;;;;;3.25;1.15;;;17.20;99.90;;;;;;4970379;28;20536;-31
2022/05/29 07:19:51;;;;;;;5.78;1.50;;;16.10;99.90;;;;;;4973859;28;20026;-31
2022/05/29 07:22:17;;;;;;;7.75;1.20;;;15.00;99.90;;;;;;4974611;28;20039;-32
2022/05/29 07:24:43;;;;;;;6.22;0.65;;;14.30;99.90;;;;;;4975618;28;20386;-27
2022/05/29 07:27:10;;;;;;;2.67;0.43;;;14.10;99.90;;;;;;4974366;28;20463;-28
2022/05/29 07:29:35;;;;;;;2.10;0.60;;;14.00;99.90;;;;;;4974763;28;20034;-30
2022/05/29 07:32:02;;;;;;;2.75;0.85;;;14.00;99.90;;;;;;4975393;28;20475;-31
2022/05/29 07:34:27;;;;;;;3.00;0.63;;;13.90;99.90;;;;;;4969210;28;20558;-28
2022/05/29 07:37:00;;;;;;;5.28;1.05;;;13.80;99.90;;;;;;4972690;28;20121;-29
2022/05/29 07:39:25;;;;;;;6.50;1.13;;;14.00;99.90;;;;;;4969562;28;20484;-29
2022/05/29 07:44:35;;;;;;;4.38;0.90;;;14.20;99.90;;;;;;4969037;28;20162;-36
2022/05/29 07:47:01;;;;;;;4.75;0.80;;;14.20;99.90;;;;;;4968924;28;20113;-39
2022/05/29 07:49:27;;;;;;;4.32;0.77;;;14.20;99.90;;;;;;4970087;28;20031;-36
2022/05/29 07:51:52;;;;;;;8.98;1.70;;;14.10;99.90;;;;;;4969955;28;20063;-37
2022/05/29 07:54:20;;;;;;;7.13;1.00;;;14.00;99.90;;;;;;4970111;28;20106;-33
2022/05/29 07:56:46;;;;;;;;;;;14.10;99.90;;;;;;4974656;28;20123;-36
2022/05/29 07:59:14;;;;;;;1.33;1.00;;;13.80;99.90;;;;;;4974848;28;20289;-36
2022/05/29 08:01:39;;;;;;;5.13;1.38;;;13.60;99.90;;;;;;4975693;28;20030;-35
2022/05/29 08:04:05;;;;;;;12.13;1.83;;;13.30;99.90;;;;;;4974790;28;20372;-37
2022/05/29 08:06:30;;;;;;;5.30;1.27;;;13.30;99.90;;;;;;4966100;28;20034;-37
2022/05/29 08:08:56;;;;;;;3.33;1.10;;;13.30;99.90;;;;;;4972210;28;20061;-38
2022/05/29 08:11:22;;;;;;;6.93;1.23;;;13.60;99.90;;;;;;4975073;28;20471;-29
2022/05/29 08:13:47;;;;;;;7.00;0.98;;;13.90;99.90;;;;;;4971703;28;20031;-27
2022/05/29 08:16:16;;;;;;;6.30;1.02;;;14.10;99.90;;;;;;4974137;28;20031;-35
2022/05/29 08:18:42;;;;;;;9.45;2.80;;;14.30;99.90;;;;;;4973823;28;20111;-27
2022/05/29 08:21:08;;;;;;;9.45;1.67;;;14.40;99.90;;;;;;4971914;28;20074;-32
2022/05/29 08:23:35;;;;;;;9.13;1.27;;;14.50;99.90;;;;;;4982172;28;20027;-31
2022/05/29 08:31:36;;;;;;;4.72;1.10;;;13.90;99.90;;;;;;4959202;28;20073;-32
2022/05/29 08:34:02;;;;;;;2.47;0.60;;;13.70;99.90;;;;;;4974745;28;20022;-29
2022/05/29 08:36:28;;;;;;;5.35;0.65;;;13.40;99.90;;;;;;4974759;28;20034;-31
2022/05/29 08:38:56;;;;;;;1.17;0.60;;;13.40;99.90;;;;;;4973997;28;20046;-36
2022/05/29 08:41:33;;;;;;;;;;;13.50;99.90;;;;;;4974087;28;20451;-29
2022/05/29 08:44:12;;;;;;;8.57;0.93;;;13.60;99.90;;;;;;4975006;28;19913;-29
2022/05/29 08:46:48;;;;;;;1.40;1.08;;;13.70;99.90;;;;;;4973392;28;20125;-33
2022/05/29 08:49:28;;;;;;;6.72;0.60;;;13.90;99.90;;;;;;4973434;28;20031;-29
2022/05/29 08:52:25;;;;;;;6.90;0.90;;;14.00;99.90;;;;;;4973868;28;20479;-28
2022/05/29 08:55:10;;;;;;;2.83;0.63;;;13.90;99.90;;;;;;4969483;28;20031;-32
2022/05/29 08:57:44;;;;;;;5.63;0.82;;;13.90;99.90;;;;;;4973587;28;20035;-32
2022/05/29 09:00:20;;;;;;;5.00;0.68;;;14.00;99.90;;;;;;4968276;28;20102;-37
2022/05/29 09:03:24;;;;;;;4.35;0.60;;;14.10;99.90;;;;;;4972044;28;20031;-37
2022/05/29 09:06:02;;;;;;;3.33;0.80;;;14.00;99.90;;;;;;4954608;28;20066;-37
2022/05/29 09:08:35;;;;;;;7.00;0.88;;;14.00;99.90;;;;;;4968462;28;20048;-37
2022/05/29 09:11:18;;;;;;;5.88;1.13;;;14.20;99.90;;;;;;4973892;28;20122;-38
2022/05/29 09:13:53;;;;;;;0.93;0.45;;;14.30;99.90;;;;;;4973662;28;20077;-31
2022/05/29 09:16:33;;;;;;;2.13;0.40;;;14.00;99.90;;;;;;4969984;28;20063;-29
2022/05/29 09:19:31;;;;;;;0.43;0.40;;;13.60;99.90;;;;;;4973714;28;20487;-29
2022/05/29 09:22:15;;;;;;;4.53;0.47;;;13.20;99.90;;;;;;4933191;29;20067;-30
2022/05/29 09:24:49;;;;;;;1.75;0.20;;;12.80;99.90;;;;;;4971479;28;20109;-28
2022/05/29 09:27:16;;;;;;;2.17;0.22;;;12.60;99.90;;;;;;4971389;28;20023;-27
2022/05/29 09:29:41;;;;;;;0.50;0.50;;;12.30;99.90;;;;;;4976985;28;20490;-27
2022/05/29 09:32:14;;;;;;;3.17;0.17;;;12.30;99.90;;;;;;4977597;28;20015;-29
2022/05/29 09:34:42;;;;;;;0.25;0.20;;;12.20;99.90;;;;;;4976355;28;20483;-31
2022/05/29 09:37:23;;;;;;;0.70;0.22;;;12.30;99.90;;;;;;4971423;28;20506;-33
2022/05/29 09:39:55;;;;;;;1.13;0.30;;;12.30;99.90;;;;;;4967160;28;20475;-32
2022/05/29 09:42:53;;;;;;;0.30;0.20;;;12.50;99.90;;;;;;4977375;28;20030;-29
2022/05/29 09:45:28;;;;;;;0.65;0.40;;;12.60;99.90;;;;;;4966466;28;20035;-31
2022/05/29 09:50:58;;;;;;;1.35;0.43;;;13.50;99.90;;;;;;4973320;28;20117;-33
2022/05/29 09:53:32;;;;;;;2.60;0.80;;;14.40;99.90;;;;;;4976807;28;20037;-30
2022/05/29 09:56:07;;;;;;;7.47;1.25;;;14.80;99.90;;;;;;4977260;28;20030;-29
2022/05/29 09:58:50;;;;;;;2.22;0.47;;;14.00;99.90;;;;;;4976887;28;20038;-34
2022/05/29 10:01:48;;;;;;;5.90;0.80;;;12.90;99.90;;;;;;4977678;28;20502;-38
2022/05/29 10:04:19;;;;;;;5.82;1.15;;;12.00;99.90;;;;;;4945061;28;20476;-28
2022/05/29 10:06:56;;;;;;;3.72;0.65;;;11.60;99.90;;;;;;4977707;28;20023;-29
2022/05/29 10:09:25;;;;;;;3.10;0.85;;;11.50;99.90;;;;;;4973778;28;20490;-32
2022/05/29 10:11:53;;;;;;;2.50;0.65;;;11.50;99.90;;;;;;4976235;28;20509;-32
2022/05/29 10:14:35;;;;;;;10.50;1.42;;;11.50;99.90;;;;;;4977154;28;20494;-35
2022/05/29 10:17:01;;;;;;;4.57;1.35;;;11.70;99.90;;;;;;4976592;28;20045;-31
2022/05/29 10:19:38;;;;;;;8.65;1.33;;;11.80;99.90;;;;;;4975254;28;20022;-30
2022/05/29 10:22:15;;;;;;;5.20;1.45;;;11.90;99.90;;;;;;4976213;28;20133;-28
2022/05/29 10:24:41;;;;;;;5.35;1.10;;;12.00;99.90;;;;;;4977439;28;20027;-28
2022/05/29 10:27:10;;;;;;;9.48;1.17;;;12.00;99.90;;;;;;4977468;28;20491;-37
2022/05/29 10:29:38;;;;;;;7.70;1.33;;;12.20;99.90;;;;;;4970965;28;20105;-28
2022/05/29 10:32:20;;;;;;;5.97;1.38;;;12.40;99.90;;;;;;4976315;28;20042;-31
2022/05/29 10:34:46;;;;;;;6.78;1.20;;;12.30;99.90;;;;;;4974851;28;20387;-29
2022/05/29 10:37:41;;;;;;;6.55;1.25;;;12.30;99.90;;;;;;4977188;28;20101;-28
2022/05/29 10:40:28;;;;;;;13.23;1.85;;;12.20;99.90;;;;;;4974534;28;20023;-27
2022/05/29 10:43:03;;;;;;;6.43;1.17;;;12.10;99.90;;;;;;4969800;28;20544;-32
2022/05/29 10:45:34;;;;;;;2.75;0.75;;;12.10;99.90;;;;;;4974090;28;20475;-33
2022/05/29 10:50:57;;;;;;;8.10;2.88;;;12.30;99.90;;;;;;4975408;28;20130;-36
2022/05/29 10:54:00;;;;;;;4.10;1.08;;;12.50;99.90;;;;;;4969332;28;20035;-34
2022/05/29 10:56:52;;;;;;;6.97;1.00;;;12.70;99.90;;;;;;4969486;28;20121;-28
2022/05/29 10:59:49;;;;;;;8.02;1.50;;;13.00;99.90;;;;;;4971688;28;20487;-27
2022/05/29 11:05:19;;;;;;;5.35;0.80;;;13.20;99.90;;;;;;4976625;28;20724;-30
2022/05/29 11:08:09;;;;;;;5.90;1.25;;;12.70;99.90;;;;;;4969468;28;20050;-27
2022/05/29 11:10:34;;;;;;;5.93;1.45;;;12.40;99.90;;;;;;4973803;28;20031;-29
2022/05/29 11:13:06;;;;;;;6.57;1.05;;;12.20;99.90;;;;;;4972194;28;20034;-31
2022/05/29 11:15:43;;;;;;;6.65;0.75;;;12.10;99.90;;;;;;4972113;28;20468;-31
2022/05/29 11:18:34;;;;;;;3.00;1.38;;;12.10;99.90;;;;;;4962896;28;20545;-29
2022/05/29 11:21:33;;;;;;;2.95;0.60;;;12.00;99.90;;;;;;4964317;28;20571;-30
2022/05/29 11:24:35;;;;;;;0.70;0.60;;;12.00;99.90;;;;;;4975584;28;20031;-27
2022/05/29 11:27:21;;;;;;;5.00;1.10;;;12.00;99.90;;;;;;4973850;28;20043;-29
2022/05/29 11:30:16;;;;;;;3.63;0.77;;;12.00;99.90;;;;;;4975307;28;20053;-26
2022/05/29 11:33:03;;;;;;;5.03;0.82;;;12.20;99.90;;;;;;4972717;28;20038;-32
2022/05/29 11:35:29;;;;;;;5.20;1.25;;;12.30;99.90;;;;;;4974073;28;20491;-36
2022/05/29 11:38:16;;;;;;;3.30;1.40;;;12.60;99.90;;;;;;4962082;28;20126;-27
2022/05/29 11:40:51;;;;;;;2.50;1.10;;;12.80;99.90;;;;;;4969670;28;20061;-31
2022/05/29 11:43:46;;;;;;;5.18;1.00;;;13.00;99.90;;;;;;4974401;28;20030;-29
2022/05/29 11:52:25;;;;;;;5.10;0.88;;;13.20;99.90;;;;;;4970071;28;20093;-30
2022/05/29 11:55:01;;;;;;;5.88;0.90;;;13.20;99.90;;;;;;4974721;28;20476;-30
2022/05/29 11:57:32;;;;;;;3.35;1.00;;;13.10;99.90;;;;;;4972374;28;20472;-30
2022/05/29 12:00:03;;;;;;;5.30;1.52;;;13.20;99.90;;;;;;4969253;28;20158;-32
2022/05/29 12:02:35;;;;;;;1.80;0.20;;;13.30;99.90;;;;;;4962294;28;20640;-34
2022/05/29 12:05:06;;;;;;;4.97;0.80;;;13.50;99.90;;;;;;4973823;28;20506;-39
2022/05/29 12:07:43;;;;;;;6.15;0.90;;;13.70;99.90;;;;;;4970096;28;20054;-38
2022/05/29 12:10:21;;;;;;;6.13;0.52;;;13.80;99.90;;;;;;4969572;28;20043;-41
2022/05/29 12:13:01;;;;;;;0.60;0.60;;;14.00;99.90;;;;;;5065589;28;20469;-27
2022/05/29 12:15:30;;;;;;;7.53;1.17;;;14.20;99.90;;;;;;5074222;28;20093;-28
2022/05/29 12:18:01;;;;;;;1.70;0.55;;;14.40;99.90;;;;;;5081726;28;20036;-32
2022/05/29 12:20:52;;;;;;;8.13;1.08;;;14.50;99.90;;;;;;5067770;28;20020;-44
2022/05/29 12:23:24;;;;;;;6.63;0.77;;;14.60;99.90;;;;;;5059578;28;20456;-28
2022/05/29 12:26:01;;;;;;;0.50;0.43;;;14.40;99.90;;;;;;5062301;28;20508;-28
2022/05/29 12:28:48;;;;;;;2.72;0.95;;;14.20;99.90;;;;;;5062954;28;20036;-35
2022/05/29 12:31:26;;;;;;;1.70;0.47;;;14.00;99.90;;;;;;5063967;28;20027;-31
2022/05/29 12:33:52;;;;;;;1.75;0.57;;;14.00;99.90;;;;;;5058528;28;20148;-31
2022/05/29 12:36:21;;;;;;;1.15;0.50;;;14.10;99.90;;;;;;5052685;28;20103;-28
2022/05/29 12:39:05;;;;;;;8.98;0.95;;;14.50;99.90;;;;;;5084195;28;20028;-30
2022/05/29 12:41:46;;;;;;;2.78;0.85;;;14.50;99.90;;;;;;5050663;28;20484;-33
2022/05/29 12:44:36;;;;;;;2.38;0.40;;;14.30;99.90;;;;;;5052140;28;20060;-30
2022/05/29 12:47:14;;;;;;;6.53;0.60;;;13.90;99.90;;;;;;5051511;28;20083;-29
2022/05/29 12:49:59;;;;;;;1.50;0.50;;;13.70;99.90;;;;;;5057872;28;20025;-33
2022/05/29 12:52:46;;;;;;;7.28;0.82;;;13.60;99.90;;;;;;5049522;28;20562;-29
2022/05/29 12:55:23;;;;;;;3.63;0.43;;;13.50;99.90;;;;;;5047985;28;20473;-35
2022/05/29 12:58:16;;;;;;;0.75;0.30;;;13.60;99.90;;;;;;5059509;28;20033;-36
2022/05/29 13:01:03;;;;;;;7.43;1.13;;;13.70;99.90;;;;;;5061147;28;20024;-36
2022/05/29 13:04:02;;;;;;;9.88;1.40;;;13.90;99.90;;;;;;5064895;28;20536;-32
2022/05/29 13:07:02;;;;;;;3.45;0.80;;;13.80;99.90;;;;;;5053729;28;20094;-31
2022/05/29 13:09:52;;;;;;;1.27;0.40;;;14.00;99.90;;;;;;5055213;28;20111;-38
2022/05/29 13:12:32;;;;;;;7.78;0.73;;;14.30;99.90;;;;;;5054992;28;20105;-30
2022/05/29 13:15:03;;;;;;;1.63;0.70;;;14.70;99.90;;;;;;5048922;28;20029;-30
2022/05/29 13:17:32;;;;;;;5.20;0.98;;;14.80;99.90;;;;;;5049479;28;20029;-27
2022/05/29 13:19:57;;;;;;;7.25;1.15;;;14.80;99.90;;;;;;5062909;28;20537;-30
2022/05/29 13:22:49;;;;;;;5.00;0.60;;;14.90;99.90;;;;;;5060852;28;20120;-41
2022/05/29 13:25:16;;;;;;;2.83;0.80;;;14.90;99.90;;;;;;5032788;28;20171;-34
2022/05/29 13:27:42;;;;;;;2.35;0.60;;;14.60;99.90;;;;;;5041863;28;20013;-29
2022/05/29 13:30:29;;;;;;;4.50;0.52;;;14.30;99.90;;;;;;5052006;28;20035;-41
2022/05/29 13:33:29;;;;;;;2.75;0.77;;;14.20;99.90;;;;;;5037317;28;20029;-36
2022/05/29 13:35:57;;;;;;;2.22;0.55;;;14.10;99.90;;;;;;5044515;28;20078;-31
2022/05/29 13:38:44;;;;;;;3.15;0.55;;;14.00;99.90;;;;;;5039787;28;20034;-32
2022/05/29 13:41:50;;;;;;;3.45;0.63;;;14.10;99.90;;;;;;5034537;28;20029;-31
2022/05/29 13:44:55;;;;;;;2.15;0.60;;;14.10;99.90;;;;;;5033360;28;20444;-34
2022/05/29 13:47:26;;;;;;;5.95;1.25;;;14.20;99.90;;;;;;5016943;28;20034;-35
2022/05/29 13:50:02;;;;;;;1.52;0.52;;;14.20;99.90;;;;;;5031017;28;20474;-30
2022/05/29 13:52:32;;;;;;;3.53;0.52;;;14.10;99.90;;;;;;5034482;28;20054;-30
2022/05/29 13:55:09;;;;;;;2.58;0.77;;;14.00;99.90;;;;;;5043445;28;20029;-31